Tacoma, Washington
Current Conditions -  °F | °C
As of 5:58 AM on Tuesday 21 Oct 2014 (Local Time) from KTCM Reporting Station
Broken Clouds Broken Clouds  
Wind Chill: 52°   Ceiling: 7000
Heat Index: 52°   Visibility: 10mi
Dew Point: 52°   Wind: 8mph
Humidity: 99%   Direction: 180°S
Pressure: 29.86"   Gusts: NA
Location:  47.26°N, 122.44°W
Report Text: KTCM 211258Z AUTO 18007KT 10SM FEW037 BKN070 11/11 A2986 RMK AO2 SLPNO T01120110 $
Loading
Personal Weather Stations






























Interactive Weather Map New forecast layout! Learn more

10-Day Weather Forecast

Advertisements
Track Severe Weather on mobile